createdAt,value
2018-09-27T00:00:13.665Z,23.073425
2018-09-27T00:00:43.332Z,23.093567
2018-09-27T00:01:13.140Z,23.103638
2018-09-27T00:01:43.196Z,23.103638
2018-09-27T00:02:13.327Z,23.123779
2018-09-27T00:02:43.001Z,23.093567
2018-09-27T00:03:12.893Z,23.123779
2018-09-27T00:03:43.400Z,23.093567
2018-09-27T00:04:13.426Z,23.053284
2018-09-27T00:04:43.182Z,22.972717
2018-09-27T00:05:13.296Z,22.922363
2018-09-27T00:05:42.806Z,22.922363
2018-09-27T00:06:12.849Z,22.88208
2018-09-27T00:06:42.517Z,22.902222
2018-09-27T00:07:12.133Z,22.861938
2018-09-27T00:07:41.568Z,22.861938
2018-09-27T00:08:11.336Z,22.88208
2018-09-27T00:08:41.040Z,22.902222
2018-09-27T00:09:10.637Z,22.912292
2018-09-27T00:09:40.217Z,22.922363
2018-09-27T00:10:09.787Z,22.922363
2018-09-27T00:10:39.604Z,22.912292
2018-09-27T00:11:09.059Z,22.821655
2018-09-27T00:11:39.583Z,22.791443
2018-09-27T00:12:09.374Z,22.821655
2018-09-27T00:12:39.593Z,22.831726
2018-09-27T00:13:09.852Z,22.861938
2018-09-27T00:13:39.578Z,22.88208
2018-09-27T00:14:09.370Z,22.902222
2018-09-27T00:14:39.949Z,22.912292
2018-09-27T00:15:09.673Z,22.952576
2018-09-27T00:15:39.224Z,22.952576
2018-09-27T00:16:09.195Z,22.972717
2018-09-27T00:16:39.277Z,22.972717
2018-09-27T00:17:09.528Z,22.952576
2018-09-27T00:17:39.021Z,23.00293
2018-09-27T00:18:09.090Z,22.952576
2018-09-27T00:18:39.379Z,22.952576
2018-09-27T00:19:08.749Z,22.942505
2018-09-27T00:19:38.304Z,22.942505
2018-09-27T00:20:07.609Z,22.922363
2018-09-27T00:20:37.941Z,22.861938
2018-09-27T00:21:07.321Z,22.902222
2018-09-27T00:21:36.731Z,22.922363
2018-09-27T00:22:06.093Z,22.942505
2018-09-27T00:22:35.630Z,22.942505
2018-09-27T00:23:06.619Z,22.942505
2018-09-27T00:23:37.232Z,22.972717
2018-09-27T00:24:06.601Z,22.972717
2018-09-27T00:24:35.994Z,22.952576
2018-09-27T00:25:06.383Z,22.902222
2018-09-27T00:25:36.070Z,22.912292
2018-09-27T00:26:05.449Z,22.912292
2018-09-27T00:26:35.020Z,22.88208
2018-09-27T00:27:04.699Z,22.861938
2018-09-27T00:27:34.090Z,22.831726
2018-09-27T00:28:03.902Z,22.831726
2018-09-27T00:28:33.482Z,22.851868
2018-09-27T00:29:02.934Z,22.791443
2018-09-27T00:29:32.470Z,22.791443
2018-09-27T00:30:01.835Z,22.791443
2018-09-27T00:30:31.354Z,22.801514
2018-09-27T00:31:01.529Z,22.791443
2018-09-27T00:31:32.180Z,22.791443
2018-09-27T00:32:02.356Z,22.801514
2018-09-27T00:32:32.333Z,22.831726
2018-09-27T00:33:01.871Z,22.851868
2018-09-27T00:33:31.416Z,22.88208
2018-09-27T00:34:01.222Z,22.922363
2018-09-27T00:34:30.829Z,22.952576
2018-09-27T00:35:00.499Z,22.982788
2018-09-27T00:35:30.059Z,22.972717
2018-09-27T00:35:59.760Z,22.942505
2018-09-27T00:36:29.165Z,22.902222
2018-09-27T00:36:59.154Z,22.88208
2018-09-27T00:37:28.736Z,22.851868
2018-09-27T00:37:58.214Z,22.851868
2018-09-27T00:38:27.648Z,22.851868
2018-09-27T00:38:57.050Z,22.821655
2018-09-27T00:39:26.622Z,22.821655
2018-09-27T00:39:56.775Z,22.720947
2018-09-27T00:40:26.502Z,22.650452
2018-09-27T00:40:55.912Z,22.640381
2018-09-27T00:41:26.075Z,22.640381
2018-09-27T00:41:55.840Z,22.600098
2018-09-27T00:42:25.623Z,22.620239
2018-09-27T00:42:55.500Z,22.620239
2018-09-27T00:43:25.452Z,22.650452
2018-09-27T00:43:55.996Z,22.650452
2018-09-27T00:44:25.827Z,22.670593
2018-09-27T00:44:56.192Z,22.75116
2018-09-27T00:45:25.748Z,22.771301
2018-09-27T00:45:55.142Z,22.821655
2018-09-27T00:46:24.660Z,22.801514
2018-09-27T00:46:54.076Z,22.801514
2018-09-27T00:47:23.850Z,22.771301
2018-09-27T00:47:53.182Z,22.720947
2018-09-27T00:48:22.724Z,22.680664
2018-09-27T00:48:52.278Z,22.700806
2018-09-27T00:49:21.643Z,22.720947
2018-09-27T00:49:51.136Z,22.700806
2018-09-27T00:50:20.906Z,22.75116
2018-09-27T00:50:50.287Z,22.771301
2018-09-27T00:51:19.943Z,22.821655
2018-09-27T00:51:49.913Z,22.801514
2018-09-27T00:52:20.001Z,22.801514
2018-09-27T00:52:49.524Z,22.771301
2018-09-27T00:53:19.176Z,22.791443
2018-09-27T00:53:49.060Z,22.801514
2018-09-27T00:54:18.510Z,22.831726
2018-09-27T00:54:48.145Z,22.801514
2018-09-27T00:55:17.803Z,22.791443
2018-09-27T00:55:47.362Z,22.801514
2018-09-27T00:56:16.985Z,22.771301
2018-09-27T00:56:46.750Z,22.76123
2018-09-27T00:57:16.999Z,22.801514
2018-09-27T00:57:46.813Z,22.771301
2018-09-27T00:58:16.550Z,22.731018
2018-09-27T00:58:46.185Z,22.610168
2018-09-27T00:59:15.776Z,22.539673
2018-09-27T00:59:45.164Z,22.579956
2018-09-27T01:00:15.147Z,22.610168
2018-09-27T01:00:44.702Z,22.640381
2018-09-27T01:01:14.450Z,22.650452
2018-09-27T01:01:44.149Z,22.640381
2018-09-27T01:02:14.086Z,22.650452
2018-09-27T01:02:44.006Z,22.670593
2018-09-27T01:03:14.044Z,22.670593
2018-09-27T01:03:43.556Z,22.620239
2018-09-27T01:04:13.001Z,22.650452
2018-09-27T01:04:42.614Z,22.670593
2018-09-27T01:05:12.480Z,22.680664
2018-09-27T01:05:42.144Z,22.640381
2018-09-27T01:06:11.723Z,22.680664
2018-09-27T01:06:41.081Z,22.670593
2018-09-27T01:07:10.492Z,22.650452
2018-09-27T01:07:40.188Z,22.650452
2018-09-27T01:08:09.632Z,22.700806
2018-09-27T01:08:39.367Z,22.700806
2018-09-27T01:09:09.534Z,22.700806
2018-09-27T01:09:39.692Z,22.700806
2018-09-27T01:10:09.069Z,22.75116
2018-09-27T01:10:38.841Z,22.731018
2018-09-27T01:11:08.242Z,22.731018
2018-09-27T01:11:38.125Z,22.731018
2018-09-27T01:12:07.483Z,22.720947
2018-09-27T01:12:37.316Z,22.731018
2018-09-27T01:13:06.922Z,22.731018
2018-09-27T01:13:36.494Z,22.75116
2018-09-27T01:14:05.940Z,22.771301
2018-09-27T01:14:35.536Z,22.771301
2018-09-27T01:15:04.969Z,22.75116
2018-09-27T01:15:34.330Z,22.76123
2018-09-27T01:16:03.857Z,22.791443
2018-09-27T01:16:33.352Z,22.791443
2018-09-27T01:17:02.800Z,22.771301
2018-09-27T01:17:32.560Z,22.771301
2018-09-27T01:18:01.927Z,22.791443
2018-09-27T01:18:31.441Z,22.771301
2018-09-27T01:19:00.847Z,22.801514
2018-09-27T01:19:30.225Z,22.821655
2018-09-27T01:20:00.595Z,22.851868
2018-09-27T01:20:29.957Z,22.851868
2018-09-27T01:20:59.323Z,22.861938
2018-09-27T01:21:28.701Z,22.902222
2018-09-27T01:21:58.061Z,22.902222
2018-09-27T01:22:27.521Z,22.902222
2018-09-27T01:22:57.351Z,22.912292
2018-09-27T01:23:28.548Z,22.912292
2018-09-27T01:23:57.968Z,22.912292
2018-09-27T01:24:27.318Z,22.902222
2018-09-27T01:24:56.688Z,22.861938
2018-09-27T01:25:26.224Z,22.861938
2018-09-27T01:25:55.581Z,22.902222
2018-09-27T01:26:24.952Z,22.88208
2018-09-27T01:26:54.356Z,22.851868
2018-09-27T01:27:23.735Z,22.821655
2018-09-27T01:27:53.163Z,22.821655
2018-09-27T01:28:22.849Z,22.851868
2018-09-27T01:28:53.195Z,22.831726
2018-09-27T01:29:22.908Z,22.821655
2018-09-27T01:29:52.381Z,22.791443
2018-09-27T01:30:21.749Z,22.76123
2018-09-27T01:30:51.109Z,22.791443
2018-09-27T01:31:20.641Z,22.791443
2018-09-27T01:31:50.096Z,22.801514
2018-09-27T01:32:19.465Z,22.801514
2018-09-27T01:32:48.848Z,22.831726
2018-09-27T01:33:18.405Z,22.851868
2018-09-27T01:33:47.805Z,22.861938
2018-09-27T01:34:17.189Z,22.88208
2018-09-27T01:34:46.844Z,22.902222
2018-09-27T01:35:16.454Z,22.902222
2018-09-27T01:35:45.827Z,22.88208
2018-09-27T01:36:15.189Z,22.902222
2018-09-27T01:36:44.599Z,22.912292
2018-09-27T01:37:14.192Z,22.861938
2018-09-27T01:37:43.558Z,22.88208
2018-09-27T01:38:13.017Z,22.831726
2018-09-27T01:38:42.817Z,22.851868
2018-09-27T01:39:12.466Z,22.831726
2018-09-27T01:39:41.831Z,22.851868
2018-09-27T01:40:11.251Z,22.861938
2018-09-27T01:40:40.636Z,22.902222
2018-09-27T01:41:10.076Z,22.922363
2018-09-27T01:41:39.445Z,22.972717
2018-09-27T01:42:08.824Z,22.972717
2018-09-27T01:42:38.471Z,22.922363
2018-09-27T01:43:08.052Z,22.972717
2018-09-27T01:43:37.643Z,22.902222
2018-09-27T01:44:07.034Z,22.902222
2018-09-27T01:44:36.602Z,22.851868
2018-09-27T01:45:06.222Z,22.861938
2018-09-27T01:45:35.581Z,22.831726
2018-09-27T01:46:04.953Z,22.861938
2018-09-27T01:46:34.450Z,22.821655
2018-09-27T01:47:04.019Z,22.831726
2018-09-27T01:47:33.503Z,22.851868
2018-09-27T01:48:02.961Z,22.851868
2018-09-27T01:48:32.421Z,22.801514
2018-09-27T01:49:01.815Z,22.75116
2018-09-27T01:49:31.162Z,22.489319
2018-09-27T01:50:00.688Z,22.207336
2018-09-27T01:50:30.215Z,22.015991
2018-09-27T01:50:59.581Z,21.875
2018-09-27T01:51:28.955Z,21.895142
2018-09-27T01:51:58.490Z,21.824646
2018-09-27T01:52:27.972Z,21.794434
2018-09-27T01:52:57.431Z,21.804504
2018-09-27T01:53:26.972Z,21.804504
2018-09-27T01:53:56.592Z,21.824646
2018-09-27T01:54:26.296Z,21.875
2018-09-27T01:54:55.726Z,21.975708
2018-09-27T01:55:25.137Z,22.046204
2018-09-27T01:55:54.750Z,22.096558
2018-09-27T01:56:24.217Z,22.146912
2018-09-27T01:56:53.813Z,22.237549
2018-09-27T01:57:23.185Z,22.237549
2018-09-27T01:57:52.715Z,22.267761
2018-09-27T01:58:22.162Z,22.328186
2018-09-27T01:58:51.579Z,22.358398
2018-09-27T01:59:20.959Z,22.398682
2018-09-27T01:59:50.389Z,22.398682
2018-09-27T02:00:19.870Z,22.418823
2018-09-27T02:00:49.242Z,22.418823
2018-09-27T02:01:18.924Z,22.449036
2018-09-27T02:01:48.293Z,22.418823
2018-09-27T02:02:19.006Z,22.428894
2018-09-27T02:02:50.580Z,22.469177
2018-09-27T02:03:19.984Z,22.469177
2018-09-27T02:03:49.544Z,22.50946
2018-09-27T02:04:19.149Z,22.519531
2018-09-27T02:04:49.503Z,22.600098
2018-09-27T02:05:19.048Z,22.600098
2018-09-27T02:05:48.533Z,22.610168
2018-09-27T02:06:18.154Z,22.640381
2018-09-27T02:06:47.540Z,22.640381
2018-09-27T02:07:16.897Z,22.620239
2018-09-27T02:07:46.480Z,22.610168
2018-09-27T02:08:16.080Z,22.620239
2018-09-27T02:08:45.448Z,22.620239
2018-09-27T02:09:15.129Z,22.640381
2018-09-27T02:09:44.522Z,22.610168
2018-09-27T02:10:14.008Z,22.650452
2018-09-27T02:10:43.365Z,22.650452
2018-09-27T02:11:12.731Z,22.610168
2018-09-27T02:11:42.215Z,22.620239
2018-09-27T02:12:11.597Z,22.670593
2018-09-27T02:12:40.957Z,22.700806
2018-09-27T02:13:10.742Z,22.680664
2018-09-27T02:13:40.250Z,22.620239
2018-09-27T02:14:09.747Z,22.640381
2018-09-27T02:14:39.149Z,22.640381
2018-09-27T02:15:08.636Z,22.620239
2018-09-27T02:15:38.212Z,22.650452
2018-09-27T02:16:07.589Z,22.640381
2018-09-27T02:16:36.978Z,22.620239
2018-09-27T02:17:06.578Z,22.650452
2018-09-27T02:17:36.039Z,22.640381
2018-09-27T02:18:05.422Z,22.620239
2018-09-27T02:18:34.791Z,22.620239
2018-09-27T02:19:04.159Z,22.620239
2018-09-27T02:19:33.599Z,22.670593
2018-09-27T02:20:02.978Z,22.650452
2018-09-27T02:20:32.377Z,22.650452
2018-09-27T02:21:01.937Z,22.670593
2018-09-27T02:21:32.556Z,22.700806
2018-09-27T02:22:02.082Z,22.700806
2018-09-27T02:22:31.567Z,22.720947
2018-09-27T02:23:00.949Z,22.731018
2018-09-27T02:23:30.489Z,22.720947
2018-09-27T02:23:59.937Z,22.731018
2018-09-27T02:24:29.691Z,22.720947
2018-09-27T02:24:59.153Z,22.720947
2018-09-27T02:25:28.709Z,22.720947
2018-09-27T02:25:58.396Z,22.75116
2018-09-27T02:26:27.895Z,22.76123
2018-09-27T02:26:57.309Z,22.680664
2018-09-27T02:27:26.755Z,22.731018
2018-09-27T02:27:56.171Z,22.731018
2018-09-27T02:28:25.571Z,22.75116
2018-09-27T02:28:55.018Z,22.75116
2018-09-27T02:29:25.624Z,22.76123
2018-09-27T02:29:55.605Z,22.731018
2018-09-27T02:30:25.656Z,22.720947
2018-09-27T02:30:55.014Z,22.640381
2018-09-27T02:31:24.574Z,22.469177
2018-09-27T02:31:54.097Z,22.24762
2018-09-27T02:32:23.533Z,22.136841
2018-09-27T02:32:53.004Z,22.167053
2018-09-27T02:33:23.518Z,22.167053
2018-09-27T02:33:53.053Z,22.217407
2018-09-27T02:34:22.446Z,22.277832
2018-09-27T02:34:52.142Z,22.328186
2018-09-27T02:35:21.793Z,22.388611
2018-09-27T02:35:52.065Z,22.418823
2018-09-27T02:36:21.816Z,22.449036
2018-09-27T02:36:51.614Z,22.459106
2018-09-27T02:37:21.058Z,22.469177
2018-09-27T02:37:50.671Z,22.519531
2018-09-27T02:38:20.090Z,22.50946
2018-09-27T02:38:50.457Z,22.489319
2018-09-27T02:39:20.059Z,22.459106
2018-09-27T02:39:49.423Z,22.459106
2018-09-27T02:40:18.934Z,22.469177
2018-09-27T02:40:48.377Z,22.539673
2018-09-27T02:41:18.715Z,22.539673
2018-09-27T02:41:48.083Z,22.539673
2018-09-27T02:42:17.643Z,22.549744
2018-09-27T02:42:47.038Z,22.569885
2018-09-27T02:43:16.764Z,22.600098
2018-09-27T02:43:46.773Z,22.610168
2018-09-27T02:44:16.424Z,22.600098
2018-09-27T02:44:46.219Z,22.569885
2018-09-27T02:45:16.226Z,22.539673
2018-09-27T02:45:45.853Z,22.519531
2018-09-27T02:46:15.335Z,22.50946
2018-09-27T02:46:44.710Z,22.50946
2018-09-27T02:47:14.441Z,22.50946
2018-09-27T02:47:44.028Z,22.418823
2018-09-27T02:48:13.814Z,22.449036
2018-09-27T02:48:43.543Z,22.428894
2018-09-27T02:49:12.926Z,22.428894
2018-09-27T02:49:42.417Z,22.449036
2018-09-27T02:50:12.196Z,22.449036
2018-09-27T02:50:41.582Z,22.428894
2018-09-27T02:51:12.262Z,22.418823
2018-09-27T02:51:41.797Z,22.388611
2018-09-27T02:52:11.324Z,22.388611
2018-09-27T02:52:40.692Z,22.398682
2018-09-27T02:53:10.337Z,22.449036
2018-09-27T02:53:40.236Z,22.459106
2018-09-27T02:54:09.904Z,22.398682
2018-09-27T02:54:39.566Z,22.398682
2018-09-27T02:55:08.941Z,22.418823
2018-09-27T02:55:38.540Z,22.418823
2018-09-27T02:56:07.893Z,22.449036
2018-09-27T02:56:37.324Z,22.428894
2018-09-27T02:57:07.032Z,22.459106
2018-09-27T02:57:36.730Z,22.449036
2018-09-27T02:58:06.304Z,22.368469
2018-09-27T02:58:35.669Z,22.348328
2018-09-27T02:59:05.143Z,22.267761
2018-09-27T02:59:34.727Z,22.146912
2018-09-27T03:00:04.194Z,22.167053
2018-09-27T03:00:33.694Z,22.197266
2018-09-27T03:01:03.060Z,22.167053
2018-09-27T03:01:32.695Z,22.207336
2018-09-27T03:02:03.317Z,22.197266
2018-09-27T03:02:32.952Z,22.217407
2018-09-27T03:03:02.434Z,22.207336
2018-09-27T03:03:32.772Z,22.197266
2018-09-27T03:04:02.369Z,22.177124
2018-09-27T03:04:32.045Z,22.177124
2018-09-27T03:05:01.420Z,22.167053
2018-09-27T03:05:31.770Z,22.197266
2018-09-27T03:06:01.271Z,22.207336
2018-09-27T03:06:31.333Z,22.237549
2018-09-27T03:07:01.073Z,22.116699
2018-09-27T03:07:30.649Z,22.136841
2018-09-27T03:08:00.023Z,22.146912
2018-09-27T03:08:29.654Z,22.167053
2018-09-27T03:08:59.543Z,22.167053
2018-09-27T03:09:29.417Z,22.146912
2018-09-27T03:09:58.873Z,22.146912
2018-09-27T03:10:29.260Z,22.167053
2018-09-27T03:10:58.922Z,22.177124
2018-09-27T03:11:28.311Z,22.177124
2018-09-27T03:11:57.964Z,22.197266
2018-09-27T03:12:27.726Z,22.237549
2018-09-27T03:12:57.435Z,22.237549
2018-09-27T03:13:26.985Z,22.237549
2018-09-27T03:13:56.555Z,22.207336
2018-09-27T03:14:25.871Z,22.197266
2018-09-27T03:14:55.287Z,22.217407
2018-09-27T03:15:24.824Z,22.177124
2018-09-27T03:15:54.253Z,22.217407
2018-09-27T03:16:23.619Z,22.217407
2018-09-27T03:16:52.991Z,22.24762
2018-09-27T03:17:22.364Z,22.197266
2018-09-27T03:17:52.741Z,22.237549
2018-09-27T03:18:22.103Z,22.267761
2018-09-27T03:18:51.799Z,22.267761
2018-09-27T03:19:22.672Z,22.237549
2018-09-27T03:19:52.051Z,22.207336
2018-09-27T03:20:21.609Z,22.217407
2018-09-27T03:20:51.981Z,22.24762
2018-09-27T03:21:21.380Z,22.277832
2018-09-27T03:21:50.750Z,22.237549
2018-09-27T03:22:20.109Z,22.297974
2018-09-27T03:22:49.465Z,22.328186
2018-09-27T03:23:18.824Z,22.328186
2018-09-27T03:23:48.190Z,22.348328
2018-09-27T03:24:17.546Z,22.297974
2018-09-27T03:24:47.883Z,22.297974
2018-09-27T03:25:17.255Z,22.308044
2018-09-27T03:25:46.619Z,22.328186
2018-09-27T03:26:16.027Z,22.267761
2018-09-27T03:26:45.389Z,22.207336
2018-09-27T03:27:15.755Z,22.167053
2018-09-27T03:27:45.115Z,22.146912
2018-09-27T03:28:14.477Z,22.146912
2018-09-27T03:28:43.842Z,22.136841
2018-09-27T03:29:13.207Z,22.056274
2018-09-27T03:29:42.636Z,22.056274
2018-09-27T03:30:11.991Z,22.066345
2018-09-27T03:30:41.353Z,22.116699
2018-09-27T03:31:10.772Z,22.136841
2018-09-27T03:31:40.134Z,22.146912
2018-09-27T03:32:09.495Z,22.096558
2018-09-27T03:32:38.861Z,21.985779
2018-09-27T03:33:08.221Z,21.975708
2018-09-27T03:33:37.576Z,21.794434
2018-09-27T03:34:06.956Z,21.75415
2018-09-27T03:34:36.327Z,21.75415
2018-09-27T03:35:05.675Z,21.723938
2018-09-27T03:35:35.030Z,21.75415
2018-09-27T03:36:04.412Z,21.794434
2018-09-27T03:36:33.826Z,21.804504
2018-09-27T03:37:03.199Z,21.804504
2018-09-27T03:37:32.565Z,21.834717
2018-09-27T03:38:02.921Z,21.875
2018-09-27T03:38:32.292Z,21.875
2018-09-27T03:39:01.665Z,21.875
2018-09-27T03:39:31.015Z,21.905212
2018-09-27T03:40:00.377Z,21.875
2018-09-27T03:40:29.796Z,21.804504
2018-09-27T03:40:59.101Z,21.824646
2018-09-27T03:41:28.511Z,21.834717
2018-09-27T03:41:57.879Z,21.75415
2018-09-27T03:42:28.227Z,21.74408
2018-09-27T03:42:57.593Z,21.794434
2018-09-27T03:43:26.956Z,21.804504
2018-09-27T03:43:56.325Z,21.804504
2018-09-27T03:44:26.678Z,21.824646
2018-09-27T03:44:56.035Z,21.804504
2018-09-27T03:45:25.409Z,21.824646
2018-09-27T03:45:54.806Z,21.75415
2018-09-27T03:46:24.174Z,21.774292
2018-09-27T03:46:53.587Z,21.824646
2018-09-27T03:47:23.942Z,21.834717
2018-09-27T03:47:53.327Z,21.895142
2018-09-27T03:48:22.676Z,21.794434
2018-09-27T03:48:52.053Z,21.713867
2018-09-27T03:49:21.417Z,21.74408
2018-09-27T03:49:50.780Z,21.794434
2018-09-27T03:50:20.144Z,21.834717
2018-09-27T03:50:49.513Z,21.864929
2018-09-27T03:51:18.946Z,21.844788
2018-09-27T03:51:48.370Z,21.905212
2018-09-27T03:52:17.721Z,21.985779
2018-09-27T03:52:47.120Z,22.026062
2018-09-27T03:53:16.500Z,21.875
2018-09-27T03:53:45.869Z,21.693726
2018-09-27T03:54:15.242Z,21.643372
2018-09-27T03:54:45.599Z,21.62323
2018-09-27T03:55:14.973Z,21.653442
2018-09-27T03:55:44.321Z,21.643372
2018-09-27T03:56:13.674Z,21.653442
2018-09-27T03:56:43.033Z,21.693726
2018-09-27T03:57:12.448Z,21.582947
2018-09-27T03:57:41.807Z,21.593018
2018-09-27T03:58:11.171Z,21.643372
2018-09-27T03:58:40.539Z,21.683655
2018-09-27T03:59:09.892Z,21.74408
2018-09-27T03:59:39.266Z,21.774292
2018-09-27T04:00:08.628Z,21.75415
2018-09-27T04:00:38.002Z,21.844788
2018-09-27T04:01:07.360Z,21.895142
2018-09-27T04:01:36.760Z,21.895142
2018-09-27T04:02:06.178Z,21.895142
2018-09-27T04:02:36.535Z,21.864929
2018-09-27T04:03:05.927Z,21.824646
2018-09-27T04:03:35.264Z,21.613159
2018-09-27T04:04:04.655Z,21.532593
2018-09-27T04:04:34.035Z,21.532593
2018-09-27T04:05:03.395Z,21.562805
2018-09-27T04:05:32.756Z,21.613159
2018-09-27T04:06:02.123Z,21.653442
2018-09-27T04:06:31.475Z,21.643372
2018-09-27T04:07:00.861Z,21.643372
2018-09-27T04:07:30.281Z,21.62323
2018-09-27T04:07:59.648Z,21.582947
2018-09-27T04:08:29.026Z,21.562805
2018-09-27T04:08:58.389Z,21.582947
2018-09-27T04:09:27.748Z,21.593018
2018-09-27T04:09:58.097Z,21.62323
2018-09-27T04:10:27.487Z,21.683655
2018-09-27T04:10:56.846Z,21.693726
2018-09-27T04:11:26.204Z,21.723938
2018-09-27T04:11:55.572Z,21.774292
2018-09-27T04:12:24.986Z,21.774292
2018-09-27T04:12:54.355Z,21.75415
2018-09-27T04:13:23.703Z,21.713867
2018-09-27T04:13:53.067Z,21.62323
2018-09-27T04:14:22.430Z,21.643372
2018-09-27T04:14:52.793Z,21.643372
2018-09-27T04:15:22.181Z,21.562805
2018-09-27T04:15:51.614Z,21.37146
2018-09-27T04:16:20.913Z,21.210327
2018-09-27T04:16:50.276Z,21.11969
2018-09-27T04:17:19.671Z,21.069336
2018-09-27T04:17:49.089Z,21.11969
2018-09-27T04:18:18.542Z,21.170044
2018-09-27T04:18:47.899Z,21.25061
2018-09-27T04:19:17.256Z,21.25061
2018-09-27T04:19:46.612Z,21.311035
2018-09-27T04:20:15.974Z,21.37146
2018-09-27T04:20:45.336Z,21.472168
2018-09-27T04:21:14.693Z,21.49231
2018-09-27T04:21:45.056Z,21.582947
2018-09-27T04:22:14.399Z,21.613159
2018-09-27T04:22:43.810Z,21.653442
2018-09-27T04:23:13.187Z,21.673584
2018-09-27T04:23:42.547Z,21.673584
2018-09-27T04:24:12.056Z,21.673584
2018-09-27T04:24:41.260Z,21.673584
2018-09-27T04:25:10.611Z,21.643372
2018-09-27T04:25:39.972Z,21.582947
2018-09-27T04:26:09.334Z,21.62323
2018-09-27T04:26:38.724Z,21.643372
2018-09-27T04:27:08.077Z,21.643372
2018-09-27T04:27:37.463Z,21.683655
2018-09-27T04:28:06.871Z,21.683655
2018-09-27T04:28:36.237Z,21.653442
2018-09-27T04:29:05.594Z,21.542664
2018-09-27T04:29:34.963Z,21.401672
2018-09-27T04:30:04.309Z,21.351318
2018-09-27T04:30:33.675Z,21.381531
2018-09-27T04:31:03.042Z,21.401672
2018-09-27T04:31:32.406Z,21.311035
2018-09-27T04:32:01.786Z,21.351318
2018-09-27T04:32:32.149Z,21.401672
2018-09-27T04:33:01.563Z,21.462097
2018-09-27T04:33:31.919Z,21.431885
2018-09-27T04:34:01.279Z,21.381531
2018-09-27T04:34:31.629Z,21.381531
2018-09-27T04:35:01.000Z,21.37146
2018-09-27T04:35:30.352Z,21.431885
2018-09-27T04:35:59.716Z,21.401672
2018-09-27T04:36:29.079Z,21.37146
2018-09-27T04:36:58.452Z,21.280823
2018-09-27T04:37:27.832Z,21.270752
2018-09-27T04:37:57.192Z,21.220398
2018-09-27T04:38:26.615Z,21.25061
2018-09-27T04:38:55.970Z,21.280823
2018-09-27T04:39:25.347Z,21.341248
2018-09-27T04:39:54.781Z,21.401672
2018-09-27T04:40:24.067Z,21.462097
2018-09-27T04:40:53.459Z,21.522522
2018-09-27T04:41:22.800Z,21.613159
2018-09-27T04:41:52.178Z,21.653442
2018-09-27T04:42:21.542Z,21.713867
2018-09-27T04:42:50.924Z,21.74408
2018-09-27T04:43:20.327Z,21.834717
2018-09-27T04:43:49.686Z,21.864929
2018-09-27T04:44:19.071Z,21.895142
2018-09-27T04:44:49.431Z,21.915283
2018-09-27T04:45:18.795Z,21.975708
2018-09-27T04:45:48.170Z,21.955566
2018-09-27T04:46:17.521Z,21.985779
2018-09-27T04:46:46.923Z,21.99585
2018-09-27T04:47:16.255Z,22.026062
2018-09-27T04:47:45.616Z,22.026062
2018-09-27T04:48:14.973Z,21.99585
2018-09-27T04:48:45.383Z,22.015991
2018-09-27T04:49:14.744Z,22.046204
2018-09-27T04:49:44.108Z,22.026062
2018-09-27T04:50:13.470Z,21.975708
2018-09-27T04:50:42.840Z,21.875
2018-09-27T04:51:13.111Z,21.713867
2018-09-27T04:51:42.484Z,21.562805
2018-09-27T04:52:11.841Z,21.50238
2018-09-27T04:52:41.231Z,21.462097
2018-09-27T04:53:10.584Z,21.431885
2018-09-27T04:53:39.991Z,21.381531
2018-09-27T04:54:09.342Z,21.321106
2018-09-27T04:54:38.792Z,21.351318
2018-09-27T04:55:08.071Z,21.421814
2018-09-27T04:55:37.430Z,21.49231
2018-09-27T04:56:06.783Z,21.522522
2018-09-27T04:56:36.153Z,21.562805
2018-09-27T04:57:05.537Z,21.613159
2018-09-27T04:57:34.908Z,21.613159
2018-09-27T04:58:04.268Z,21.613159
2018-09-27T04:58:33.628Z,21.643372
2018-09-27T04:59:03.035Z,21.613159
2018-09-27T04:59:32.392Z,21.542664
2018-09-27T05:00:02.775Z,21.542664
2018-09-27T05:00:32.133Z,21.542664
2018-09-27T05:01:01.474Z,21.542664
2018-09-27T05:01:30.829Z,21.542664
2018-09-27T05:02:01.178Z,21.562805
2018-09-27T05:02:30.535Z,21.50238
2018-09-27T05:02:59.897Z,21.50238
2018-09-27T05:03:29.255Z,21.562805
2018-09-27T05:03:58.677Z,21.562805
2018-09-27T05:04:28.038Z,21.643372
2018-09-27T05:04:57.398Z,21.683655
2018-09-27T05:05:26.758Z,21.723938
2018-09-27T05:05:57.114Z,21.774292
2018-09-27T05:06:26.578Z,21.794434
2018-09-27T05:06:55.847Z,21.824646
2018-09-27T05:07:25.206Z,21.824646
2018-09-27T05:07:54.576Z,21.75415
2018-09-27T05:08:23.966Z,21.75415
2018-09-27T05:08:53.340Z,21.75415
2018-09-27T05:09:22.749Z,21.794434
2018-09-27T05:09:52.128Z,21.794434
2018-09-27T05:10:21.505Z,21.774292
2018-09-27T05:10:50.911Z,21.723938
2018-09-27T05:11:20.274Z,21.683655
2018-09-27T05:11:49.659Z,21.593018
2018-09-27T05:12:19.027Z,21.643372
2018-09-27T05:12:48.406Z,21.673584
2018-09-27T05:13:17.811Z,21.723938
2018-09-27T05:13:47.189Z,21.774292
2018-09-27T05:14:16.584Z,21.804504
2018-09-27T05:14:45.952Z,21.844788
2018-09-27T05:15:15.320Z,21.875
2018-09-27T05:15:44.738Z,21.875
2018-09-27T05:16:14.065Z,21.895142
2018-09-27T05:16:43.450Z,21.905212
2018-09-27T05:17:12.806Z,21.864929
2018-09-27T05:17:42.198Z,21.895142
2018-09-27T05:18:11.567Z,21.915283
2018-09-27T05:18:40.963Z,21.985779
2018-09-27T05:19:10.335Z,22.015991
2018-09-27T05:19:39.752Z,22.015991
2018-09-27T05:20:10.101Z,22.046204
2018-09-27T05:20:39.462Z,22.066345
2018-09-27T05:21:08.826Z,22.096558
2018-09-27T05:21:38.286Z,22.136841
2018-09-27T05:22:07.547Z,22.136841
2018-09-27T05:22:37.898Z,22.146912
2018-09-27T05:23:07.292Z,22.167053
2018-09-27T05:23:36.734Z,22.146912
2018-09-27T05:24:06.095Z,22.167053
2018-09-27T05:24:35.524Z,22.096558
2018-09-27T05:25:04.904Z,22.136841
2018-09-27T05:25:34.261Z,22.136841
2018-09-27T05:26:04.619Z,22.136841
2018-09-27T05:26:34.003Z,22.146912
2018-09-27T05:27:03.431Z,22.197266
2018-09-27T05:27:32.797Z,22.207336
2018-09-27T05:28:03.147Z,22.197266
2018-09-27T05:28:32.539Z,22.207336
2018-09-27T05:29:01.905Z,22.207336
2018-09-27T05:29:31.265Z,22.207336
2018-09-27T05:30:00.681Z,22.207336
2018-09-27T05:30:30.075Z,22.24762
2018-09-27T05:30:59.451Z,22.267761
2018-09-27T05:31:28.811Z,22.24762
2018-09-27T05:31:58.190Z,22.237549
2018-09-27T05:32:27.589Z,22.267761
2018-09-27T05:32:56.961Z,22.24762
2018-09-27T05:33:26.393Z,22.297974
2018-09-27T05:33:55.722Z,22.308044
2018-09-27T05:34:25.096Z,22.348328
2018-09-27T05:34:54.514Z,22.348328
2018-09-27T05:35:23.876Z,22.308044
2018-09-27T05:35:53.245Z,22.348328
2018-09-27T05:36:22.627Z,22.358398
2018-09-27T05:36:51.978Z,22.428894
2018-09-27T05:37:21.355Z,22.489319
2018-09-27T05:37:50.721Z,22.50946
2018-09-27T05:38:20.096Z,22.489319
2018-09-27T05:38:49.456Z,22.459106